Time,TemperatureF,DewpointF,PressureIn,WindDirection,WindDirectionDegrees,WindSpeedMPH,WindSpeedGustMPH,Humidity,HourlyPrecipIn,Conditions,Clouds,dailyrainin,SoftwareType,DateUTC
2013-07-06 00:02:00,81.8,74.3,29.91,ESE,114,7.6,12.7,78,0.00,CLR,,0.00,WeatherDisplay:10.37,2013-07-06 05:02:00,
2013-07-06 00:07:00,81.8,74.3,29.91,ESE,112,8.0,11.5,78,0.00,CLR,,0.00,WeatherDisplay:10.37,2013-07-06 05:07:00,
2013-07-06 00:12:00,81.8,74.3,29.91,SSE,147,6.1,9.2,78,0.00,CLR,,0.00,WeatherDisplay:10.37,2013-07-06 05:12:00,
2013-07-06 00:17:00,81.8,74.3,29.91,ESE,114,8.0,10.1,78,0.00,CLR,,0.00,WeatherDisplay:10.37,2013-07-06 05:17:00,
2013-07-06 00:22:00,81.7,74.2,29.91,SE,143,9.1,11.9,78,0.00,CLR,,0.00,WeatherDisplay:10.37,2013-07-06 05:22:00,
2013-07-06 00:27:00,81.6,74.1,29.91,ESE,114,5.3,10.4,78,0.00,CLR,,0.00,WeatherDisplay:10.37,2013-07-06 05:27:00,
2013-07-06 00:32:00,81.6,74.1,29.91,SE,130,7.4,9.2,78,0.00,CLR,,0.00,WeatherDisplay:10.37,2013-07-06 05:32:00,
2013-07-06 00:37:00,81.6,74.5,29.91,SE,141,7.3,11.5,79,0.00,CLR,,0.00,WeatherDisplay:10.37,2013-07-06 05:37:00,
2013-07-06 00:43:00,81.6,74.8,29.90,ESE,117,6.4,10.3,80,0.00,CLR,,0.00,WeatherDisplay:10.37,2013-07-06 05:43:00,
2013-07-06 00:48:00,81.5,74.4,29.90,SE,145,6.7,10.4,79,0.00,CLR,,0.00,WeatherDisplay:10.37,2013-07-06 05:48:00,
2013-07-06 00:53:00,81.5,74.7,29.90,SE,144,9.4,12.7,80,0.00,CLR,,0.00,WeatherDisplay:10.37,2013-07-06 05:53:00,
2013-07-06 00:58:00,81.6,75.2,29.90,ESE,121,6.1,10.7,81,0.00,CLR,,0.00,WeatherDisplay:10.37,2013-07-06 05:58:00,
2013-07-06 01:03:00,81.4,75.0,29.90,SE,126,5.2,9.2,81,0.00,CLR,,0.00,WeatherDisplay:10.37,2013-07-06 06:03:00,
2013-07-06 01:08:00,81.4,75.0,29.90,SE,126,7.4,10.4,81,0.00,CLR,,0.00,WeatherDisplay:10.37,2013-07-06 06:08:00,
2013-07-06 01:13:00,81.5,75.1,29.90,ESE,109,5.7,9.2,81,0.00,CLR,,0.00,WeatherDisplay:10.37,2013-07-06 06:13:00,
2013-07-06 01:18:00,81.5,75.1,29.91,SE,128,5.6,10.4,81,0.00,CLR,,0.00,WeatherDisplay:10.37,2013-07-06 06:18:00,
2013-07-06 01:23:00,81.4,75.0,29.90,SE,126,6.5,9.2,81,0.00,CLR,,0.00,WeatherDisplay:10.37,2013-07-06 06:23:00,
2013-07-06 01:28:00,81.4,75.4,29.91,ESE,116,5.5,8.1,82,0.00,CLR,,0.00,WeatherDisplay:10.37,2013-07-06 06:28:00,
2013-07-06 01:33:00,81.3,75.3,29.91,SE,140,4.8,9.2,82,0.00,CLR,,0.00,WeatherDisplay:10.37,2013-07-06 06:33:00,
2013-07-06 01:38:00,81.3,75.3,29.90,SE,143,4.2,6.0,82,0.00,CLR,,0.00,WeatherDisplay:10.37,2013-07-06 06:38:00,
2013-07-06 01:43:00,81.3,75.3,29.90,ESE,112,4.7,8.1,82,0.00,CLR,,0.00,WeatherDisplay:10.37,2013-07-06 06:43:00,
2013-07-06 01:48:00,81.2,75.2,29.90,ESE,102,3.3,5.8,82,0.00,CLR,,0.00,WeatherDisplay:10.37,2013-07-06 06:48:00,
2013-07-06 01:53:00,81.2,75.5,29.90,ESE,120,4.3,7.5,83,0.00,CLR,,0.00,WeatherDisplay:10.37,2013-07-06 06:53:00,
2013-07-06 01:58:00,81.2,75.5,29.90,ESE,121,4.1,5.8,83,0.00,CLR,,0.00,WeatherDisplay:10.37,2013-07-06 06:58:00,
2013-07-06 02:03:00,81.1,75.4,29.90,ESE,104,5.2,6.9,83,0.00,CLR,,0.00,WeatherDisplay:10.37,2013-07-06 07:03:00,
2013-07-06 02:08:00,81.1,75.8,29.90,SE,138,3.8,5.0,84,0.00,CLR,,0.00,WeatherDisplay:10.37,2013-07-06 07:08:00,
2013-07-06 02:13:00,81.1,75.8,29.90,SE,131,3.1,6.9,84,0.00,CLR,,0.00,WeatherDisplay:10.37,2013-07-06 07:13:00,
2013-07-06 02:18:00,81.0,75.7,29.90,ESE,120,3.6,7.4,84,0.00,CLR,,0.00,WeatherDisplay:10.37,2013-07-06 07:18:00,
2013-07-06 02:23:00,81.1,75.8,29.89,East,100,1.7,3.5,84,0.00,CLR,,0.00,WeatherDisplay:10.37,2013-07-06 07:23:00,
2013-07-06 02:28:00,81.1,75.8,29.89,ESE,119,3.6,6.9,84,0.00,CLR,,0.00,WeatherDisplay:10.37,2013-07-06 07:28:00,
2013-07-06 02:33:00,81.1,75.8,29.89,East,86,0.0,0.0,84,0.00,CLR,,0.00,WeatherDisplay:10.37,2013-07-06 07:33:00,
2013-07-06 02:38:00,81.1,75.8,29.89,East,89,2.1,4.6,84,0.00,CLR,,0.00,WeatherDisplay:10.37,2013-07-06 07:38:00,
2013-07-06 02:43:00,81.0,76.1,29.89,East,89,1.9,4.6,85,0.00,CLR,,0.00,WeatherDisplay:10.37,2013-07-06 07:43:00,
2013-07-06 02:48:00,81.0,76.1,29.89,ENE,72,0.0,1.2,85,0.00,CLR,,0.00,WeatherDisplay:10.37,2013-07-06 07:48:00,
2013-07-06 02:53:00,81.0,76.1,29.88,ENE,72,0.0,0.0,85,0.00,CLR,,0.00,WeatherDisplay:10.37,2013-07-06 07:53:00,
2013-07-06 02:58:00,80.9,76.0,29.88,SE,134,3.0,4.0,85,0.00,CLR,,0.00,WeatherDisplay:10.37,2013-07-06 07:58:00,
2013-07-06 03:03:00,80.8,76.2,29.88,ESE,116,3.5,5.7,86,0.00,CLR,,0.00,WeatherDisplay:10.37,2013-07-06 08:03:00,
2013-07-06 03:08:00,80.8,76.2,29.88,ESE,117,4.7,5.8,86,0.00,CLR,,0.00,WeatherDisplay:10.37,2013-07-06 08:08:00,
2013-07-06 03:13:00,80.7,76.1,29.88,ESE,121,3.7,6.9,86,0.00,CLR,,0.00,WeatherDisplay:10.37,2013-07-06 08:13:00,
2013-07-06 03:18:00,80.8,76.2,29.88,SE,134,3.6,4.6,86,0.00,CLR,,0.00,WeatherDisplay:10.37,2013-07-06 08:18:00,
2013-07-06 03:23:00,80.7,76.1,29.88,ESE,116,1.1,5.8,86,0.00,CLR,,0.00,WeatherDisplay:10.37,2013-07-06 08:23:00,
2013-07-06 03:28:00,80.8,76.6,29.88,ESE,106,4.0,4.9,87,0.00,CLR,,0.00,WeatherDisplay:10.37,2013-07-06 08:28:00,
2013-07-06 03:33:00,80.7,76.5,29.88,East,96,2.4,5.8,87,0.00,CLR,,0.00,WeatherDisplay:10.37,2013-07-06 08:33:00,
2013-07-06 03:38:00,80.8,76.6,29.88,ESE,102,0.0,3.5,87,0.00,CLR,,0.00,WeatherDisplay:10.37,2013-07-06 08:38:00,
2013-07-06 03:43:00,80.7,76.8,29.88,SSE,150,0.0,4.6,88,0.00,CLR,,0.00,WeatherDisplay:10.37,2013-07-06 08:43:00,
2013-07-06 03:48:00,80.6,76.7,29.88,SE,145,0.0,3.9,88,0.00,CLR,,0.00,WeatherDisplay:10.37,2013-07-06 08:48:00,
2013-07-06 03:53:00,80.6,76.7,29.88,SE,145,3.5,4.6,88,0.00,CLR,,0.00,WeatherDisplay:10.37,2013-07-06 08:53:00,
2013-07-06 03:58:00,80.5,76.6,29.88,SE,137,0.0,0.0,88,0.00,CLR,,0.00,WeatherDisplay:10.37,2013-07-06 08:58:00,
2013-07-06 04:03:00,80.4,76.9,29.88,SE,137,0.0,0.0,89,0.00,CLR,,0.00,WeatherDisplay:10.37,2013-07-06 09:03:00,
2013-07-06 04:08:00,80.5,77.0,29.88,SE,137,0.0,0.0,89,0.00,CLR,,0.00,WeatherDisplay:10.37,2013-07-06 09:08:00,
2013-07-06 04:13:00,80.4,76.9,29.88,SE,137,0.0,0.0,89,0.00,CLR,,0.00,WeatherDisplay:10.37,2013-07-06 09:13:00,
2013-07-06 04:18:00,80.4,76.9,29.88,SE,137,0.0,0.0,89,0.00,CLR,,0.00,WeatherDisplay:10.37,2013-07-06 09:18:00,
2013-07-06 04:24:00,80.5,77.0,29.88,SE,137,0.0,0.0,89,0.00,CLR,,0.00,WeatherDisplay:10.37,2013-07-06 09:24:00,
2013-07-06 04:29:00,80.5,77.0,29.88,SE,137,0.0,0.0,89,0.00,CLR,,0.00,WeatherDisplay:10.37,2013-07-06 09:29:00,
2013-07-06 04:34:00,80.6,77.1,29.88,SE,137,0.0,0.0,89,0.00,CLR,,0.00,WeatherDisplay:10.37,2013-07-06 09:34:00,
2013-07-06 04:39:00,80.6,77.1,29.88,SE,137,0.0,0.0,89,0.00,CLR,,0.00,WeatherDisplay:10.37,2013-07-06 09:39:00,
2013-07-06 04:44:00,80.7,77.2,29.88,SE,137,0.0,0.0,89,0.00,CLR,,0.00,WeatherDisplay:10.37,2013-07-06 09:44:00,
2013-07-06 04:49:00,80.6,77.1,29.88,SE,137,0.0,0.0,89,0.00,CLR,,0.00,WeatherDisplay:10.37,2013-07-06 09:49:00,
2013-07-06 04:54:00,80.4,76.9,29.88,SE,137,0.0,0.0,89,0.00,CLR,,0.00,WeatherDisplay:10.37,2013-07-06 09:54:00,
2013-07-06 04:59:00,80.3,76.8,29.88,NW,319,0.0,3.5,89,0.00,CLR,,0.00,WeatherDisplay:10.37,2013-07-06 09:59:00,
2013-07-06 05:04:00,80.0,76.5,29.88,NW,319,0.0,0.0,89,0.00,CLR,,0.00,WeatherDisplay:10.37,2013-07-06 10:04:00,
2013-07-06 05:09:00,79.8,76.3,29.88,NW,319,0.0,0.0,89,0.00,CLR,,0.00,WeatherDisplay:10.37,2013-07-06 10:09:00,
2013-07-06 05:14:00,79.8,76.3,29.88,NW,319,0.0,0.0,89,0.00,CLR,,0.00,WeatherDisplay:10.37,2013-07-06 10:14:00,
2013-07-06 05:19:00,79.7,76.5,29.88,NW,319,0.0,0.0,90,0.00,CLR,,0.00,WeatherDisplay:10.37,2013-07-06 10:19:00,
2013-07-06 05:24:00,79.5,76.3,29.88,NW,312,1.9,4.6,90,0.00,CLR,,0.00,WeatherDisplay:10.37,2013-07-06 10:24:00,
2013-07-06 05:29:00,79.3,76.1,29.88,NW,325,0.0,1.2,90,0.00,CLR,,0.00,WeatherDisplay:10.37,2013-07-06 10:29:00,
2013-07-06 05:34:00,79.3,76.1,29.88,NW,315,0.0,1.2,90,0.00,CLR,,0.00,WeatherDisplay:10.37,2013-07-06 10:34:00,
2013-07-06 05:39:00,79.2,76.3,29.88,NW,315,0.0,0.0,91,0.00,CLR,,0.00,WeatherDisplay:10.37,2013-07-06 10:39:00,
2013-07-06 05:44:00,79.1,76.2,29.88,NW,315,0.0,0.0,91,0.00,CLR,,0.00,WeatherDisplay:10.37,2013-07-06 10:44:00,
2013-07-06 05:49:00,79.1,76.6,29.88,NW,315,0.0,0.0,92,0.00,CLR,,0.00,WeatherDisplay:10.37,2013-07-06 10:49:00,
2013-07-06 05:54:00,79.0,76.5,29.88,NW,315,0.0,0.0,92,0.00,CLR,,0.00,WeatherDisplay:10.37,2013-07-06 10:54:00,
2013-07-06 05:59:00,79.0,76.5,29.88,NW,315,0.0,0.0,92,0.00,CLR,,0.00,WeatherDisplay:10.37,2013-07-06 10:59:00,
2013-07-06 06:04:00,79.0,76.5,29.88,NW,315,0.0,0.0,92,0.00,CLR,,0.00,WeatherDisplay:10.37,2013-07-06 11:04:00,
2013-07-06 06:10:00,78.9,76.4,29.88,NW,315,0.0,0.0,92,0.00,CLR,,0.00,WeatherDisplay:10.37,2013-07-06 11:10:00,
2013-07-06 06:15:00,78.7,76.2,29.88,NW,315,0.0,0.0,92,0.00,CLR,,0.00,WeatherDisplay:10.37,2013-07-06 11:15:00,
2013-07-06 06:20:00,78.4,76.2,29.88,NW,315,0.0,0.0,93,0.00,CLR,,0.00,WeatherDisplay:10.37,2013-07-06 11:20:00,
2013-07-06 06:25:00,78.5,76.3,29.88,NW,315,0.0,0.0,93,0.00,CLR,,0.00,WeatherDisplay:10.37,2013-07-06 11:25:00,
2013-07-06 06:30:00,78.5,76.6,29.88,NW,315,0.0,0.0,94,0.00,CLR,,0.00,WeatherDisplay:10.37,2013-07-06 11:30:00,
2013-07-06 06:35:00,78.5,76.6,29.88,NW,315,0.0,0.0,94,0.00,CLR,,0.00,WeatherDisplay:10.37,2013-07-06 11:35:00,
2013-07-06 06:40:00,78.7,76.8,29.88,NW,315,0.0,0.0,94,0.00,CLR,,0.00,WeatherDisplay:10.37,2013-07-06 11:40:00,
2013-07-06 06:45:00,78.7,76.8,29.88,NW,315,0.0,0.0,94,0.00,CLR,,0.00,WeatherDisplay:10.37,2013-07-06 11:45:00,
2013-07-06 06:50:00,78.9,77.3,29.88,NW,315,0.0,0.0,95,0.00,CLR,,0.00,WeatherDisplay:10.37,2013-07-06 11:50:00,
2013-07-06 06:55:00,79.0,77.4,29.88,NW,315,0.0,0.0,95,0.00,CLR,,0.00,WeatherDisplay:10.37,2013-07-06 11:55:00,
2013-07-06 07:00:00,78.9,77.3,29.88,NW,315,0.0,0.0,95,0.00,CLR,,0.00,WeatherDisplay:10.37,2013-07-06 12:00:00,
2013-07-06 07:05:00,79.0,77.4,29.89,ENE,68,0.3,5.8,95,0.00,CLR,,0.00,WeatherDisplay:10.37,2013-07-06 12:05:00,
2013-07-06 07:10:00,79.3,77.7,29.88,ENE,71,4.9,6.9,95,0.00,CLR,,0.00,WeatherDisplay:10.37,2013-07-06 12:10:00,
2013-07-06 07:15:00,79.7,78.1,29.88,East,85,4.9,7.3,95,0.00,CLR,,0.00,WeatherDisplay:10.37,2013-07-06 12:15:00,
2013-07-06 07:20:00,79.9,78.3,29.88,ENE,66,5.0,8.1,95,0.00,CLR,,0.00,WeatherDisplay:10.37,2013-07-06 12:20:00,
2013-07-06 07:25:00,80.2,78.6,29.89,ENE,65,5.7,9.2,95,0.00,CLR,,0.00,WeatherDisplay:10.37,2013-07-06 12:25:00,
2013-07-06 07:30:00,80.4,78.5,29.88,ENE,61,5.4,8.1,94,0.00,CLR,,0.00,WeatherDisplay:10.37,2013-07-06 12:30:00,
2013-07-06 07:35:00,80.5,78.6,29.89,NE,55,6.2,8.1,94,0.00,CLR,,0.00,WeatherDisplay:10.37,2013-07-06 12:35:00,
2013-07-06 07:40:00,80.5,78.3,29.89,ENE,59,5.5,8.1,93,0.00,CLR,,0.00,WeatherDisplay:10.37,2013-07-06 12:40:00,
2013-07-06 07:45:00,80.6,78.1,29.89,NE,56,4.9,8.1,92,0.00,CLR,,0.00,WeatherDisplay:10.37,2013-07-06 12:45:00,
2013-07-06 07:50:00,80.8,78.3,29.89,ENE,76,6.0,10.4,92,0.00,CLR,,0.00,WeatherDisplay:10.37,2013-07-06 12:50:00,
2013-07-06 07:55:00,81.0,78.1,29.89,NE,56,8.2,9.3,91,0.00,CLR,,0.00,WeatherDisplay:10.37,2013-07-06 12:55:00,
2013-07-06 08:00:00,81.1,78.2,29.89,ENE,64,8.3,11.5,91,0.00,CLR,,0.00,WeatherDisplay:10.37,2013-07-06 13:00:00,
2013-07-06 08:05:00,81.4,78.2,29.89,ENE,69,9.0,11.5,90,0.00,CLR,,0.00,WeatherDisplay:10.37,2013-07-06 13:05:00,
2013-07-06 08:10:00,81.7,78.1,29.89,ENE,69,8.0,10.4,89,0.00,CLR,,0.00,WeatherDisplay:10.37,2013-07-06 13:10:00,
2013-07-06 08:15:00,81.8,77.9,29.89,ENE,69,7.4,9.2,88,0.00,CLR,,0.00,WeatherDisplay:10.37,2013-07-06 13:15:00,
2013-07-06 08:20:00,82.0,77.7,29.90,ENE,65,7.8,10.3,87,0.00,CLR,,0.00,WeatherDisplay:10.37,2013-07-06 13:20:00,
2013-07-06 08:25:00,82.2,77.6,29.89,NE,56,10.8,14.2,86,0.00,CLR,,0.00,WeatherDisplay:10.37,2013-07-06 13:25:00,
2013-07-06 08:30:00,82.4,77.8,29.89,NE,48,7.8,11.7,86,0.00,CLR,,0.00,WeatherDisplay:10.37,2013-07-06 13:30:00,
2013-07-06 08:35:00,82.5,77.5,29.89,ENE,68,9.2,11.7,85,0.00,CLR,,0.00,WeatherDisplay:10.37,2013-07-06 13:35:00,
2013-07-06 08:40:00,82.7,77.4,29.89,ENE,73,8.4,12.7,84,0.00,CLR,,0.00,WeatherDisplay:10.37,2013-07-06 13:40:00,
2013-07-06 08:45:00,82.9,77.2,29.89,ENE,62,9.0,11.5,83,0.00,CLR,,0.00,WeatherDisplay:10.37,2013-07-06 13:45:00,
2013-07-06 08:50:00,83.0,76.9,29.89,ENE,61,9.2,13.3,82,0.00,CLR,,0.00,WeatherDisplay:10.37,2013-07-06 13:50:00,
2013-07-06 08:55:00,83.2,77.1,29.89,NE,54,8.5,11.5,82,0.00,CLR,,0.00,WeatherDisplay:10.37,2013-07-06 13:55:00,
2013-07-06 09:00:00,83.4,77.0,29.89,NE,56,9.3,11.5,81,0.00,CLR,,0.00,WeatherDisplay:10.37,2013-07-06 14:00:00,
2013-07-06 09:05:00,83.5,77.1,29.89,NE,55,7.6,12.7,81,0.00,CLR,,0.00,WeatherDisplay:10.37,2013-07-06 14:05:00,
2013-07-06 09:10:00,83.6,76.8,29.89,NE,42,7.8,9.5,80,0.00,CLR,,0.00,WeatherDisplay:10.37,2013-07-06 14:10:00,
2013-07-06 09:15:00,83.9,76.7,29.89,NE,51,8.4,11.5,79,0.00,CLR,,0.00,WeatherDisplay:10.37,2013-07-06 14:15:00,
2013-07-06 09:20:00,84.1,76.5,29.90,ENE,72,7.8,12.7,78,0.00,CLR,,0.00,WeatherDisplay:10.37,2013-07-06 14:20:00,
2013-07-06 09:25:00,84.0,76.4,29.90,ENE,65,9.8,13.8,78,0.00,CLR,,0.00,WeatherDisplay:10.37,2013-07-06 14:25:00,
2013-07-06 09:30:00,84.0,76.4,29.90,ENE,68,8.9,13.8,78,0.00,CLR,,0.00,WeatherDisplay:10.37,2013-07-06 14:30:00,
2013-07-06 09:35:00,84.2,76.2,29.90,NE,52,9.8,14.5,77,0.00,CLR,,0.00,WeatherDisplay:10.37,2013-07-06 14:35:00,
2013-07-06 09:40:00,84.4,76.4,29.90,NE,54,10.2,14.0,77,0.00,CLR,,0.00,WeatherDisplay:10.37,2013-07-06 14:40:00,
2013-07-06 09:45:00,84.6,75.8,29.90,ENE,68,10.4,14.0,75,0.00,CLR,,0.00,WeatherDisplay:10.37,2013-07-06 14:45:00,
2013-07-06 09:50:00,84.8,76.0,29.90,ENE,76,8.1,13.8,75,0.00,CLR,,0.00,WeatherDisplay:10.37,2013-07-06 14:50:00,
2013-07-06 09:55:00,85.1,75.9,29.90,ENE,65,8.7,12.7,74,0.00,CLR,,0.00,WeatherDisplay:10.37,2013-07-06 14:55:00,
2013-07-06 10:00:00,85.4,76.2,29.91,ENE,59,9.4,11.1,74,0.00,CLR,,0.00,WeatherDisplay:10.37,2013-07-06 15:00:00,
2013-07-06 10:05:00,85.6,75.9,29.90,East,85,9.9,12.7,73,0.00,CLR,,0.00,WeatherDisplay:10.37,2013-07-06 15:05:00,
2013-07-06 10:10:00,85.7,75.6,29.90,East,93,10.8,15.0,72,0.00,CLR,,0.00,WeatherDisplay:10.37,2013-07-06 15:10:00,
2013-07-06 10:15:00,86.0,75.9,29.91,ENE,78,9.8,11.5,72,0.00,CLR,,0.00,WeatherDisplay:10.37,2013-07-06 15:15:00,
2013-07-06 10:20:00,86.1,75.6,29.91,ENE,78,8.9,15.0,71,0.00,CLR,,0.00,WeatherDisplay:10.37,2013-07-06 15:20:00,
2013-07-06 10:25:00,86.4,75.5,29.91,ENE,69,9.9,15.0,70,0.00,CLR,,0.00,WeatherDisplay:10.37,2013-07-06 15:25:00,
2013-07-06 10:30:00,86.6,75.2,29.91,ENE,71,10.0,13.8,69,0.00,CLR,,0.00,WeatherDisplay:10.37,2013-07-06 15:30:00,
2013-07-06 10:35:00,86.7,75.3,29.91,ESE,103,9.1,15.0,69,0.00,CLR,,0.00,WeatherDisplay:10.37,2013-07-06 15:35:00,
2013-07-06 10:40:00,87.0,75.6,29.91,ENE,73,8.3,12.7,69,0.00,CLR,,0.00,WeatherDisplay:10.37,2013-07-06 15:40:00,
2013-07-06 10:45:00,87.1,75.7,29.91,East,80,9.2,16.1,69,0.00,CLR,,0.00,WeatherDisplay:10.37,2013-07-06 15:45:00,
2013-07-06 10:50:00,87.1,75.3,29.91,ENE,72,10.0,16.3,68,0.00,CLR,,0.00,WeatherDisplay:10.37,2013-07-06 15:50:00,
2013-07-06 10:55:00,87.2,75.3,29.91,ENE,78,9.2,13.8,68,0.00,CLR,,0.00,WeatherDisplay:10.37,2013-07-06 15:55:00,
2013-07-06 11:01:00,87.3,75.4,29.91,ENE,66,9.4,13.8,68,0.00,CLR,,0.00,WeatherDisplay:10.37,2013-07-06 16:01:00,
2013-07-06 11:06:00,87.5,75.2,29.91,East,82,9.7,13.8,67,0.00,CLR,,0.00,WeatherDisplay:10.37,2013-07-06 16:06:00,
2013-07-06 11:11:00,87.6,75.3,29.91,ENE,66,9.5,15.0,67,0.00,CLR,,0.00,WeatherDisplay:10.37,2013-07-06 16:11:00,
2013-07-06 11:16:00,87.6,75.3,29.91,East,88,11.1,16.1,67,0.00,CLR,,0.00,WeatherDisplay:10.37,2013-07-06 16:16:00,
2013-07-06 11:21:00,87.7,74.9,29.91,ENE,58,11.2,16.1,66,0.00,CLR,,0.00,WeatherDisplay:10.37,2013-07-06 16:21:00,
2013-07-06 11:26:00,88.0,75.2,29.91,NE,47,9.6,17.3,66,0.00,CLR,,0.00,WeatherDisplay:10.37,2013-07-06 16:26:00,
2013-07-06 11:31:00,88.2,75.4,29.91,East,89,8.8,15.0,66,0.00,CLR,,0.00,WeatherDisplay:10.37,2013-07-06 16:31:00,
2013-07-06 11:36:00,88.3,74.6,29.91,NE,42,9.8,16.1,64,0.00,CLR,,0.00,WeatherDisplay:10.37,2013-07-06 16:36:00,
2013-07-06 11:41:00,88.4,75.1,29.91,ENE,76,10.3,13.8,65,0.00,CLR,,0.00,WeatherDisplay:10.37,2013-07-06 16:41:00,
2013-07-06 11:46:00,88.6,75.3,29.91,East,96,10.8,15.0,65,0.00,CLR,,0.00,WeatherDisplay:10.37,2013-07-06 16:46:00,
2013-07-06 11:51:00,88.8,75.5,29.91,ESE,102,8.0,11.5,65,0.00,CLR,,0.00,WeatherDisplay:10.37,2013-07-06 16:51:00,
2013-07-06 11:56:00,89.0,75.2,29.91,ENE,76,11.6,16.1,64,0.00,CLR,,0.00,WeatherDisplay:10.37,2013-07-06 16:56:00,
2013-07-06 12:02:00,89.0,74.8,29.91,ENE,58,11.8,16.1,63,0.00,CLR,,0.00,WeatherDisplay:10.37,2013-07-06 17:02:00,
2013-07-06 12:07:00,89.2,75.0,29.91,ENE,73,11.0,16.1,63,0.00,CLR,,0.00,WeatherDisplay:10.37,2013-07-06 17:07:00,
2013-07-06 12:12:00,89.2,75.0,29.91,ENE,71,11.3,17.3,63,0.00,CLR,,0.00,WeatherDisplay:10.37,2013-07-06 17:12:00,
2013-07-06 12:18:00,89.2,75.0,29.91,ENE,64,10.7,17.3,63,0.00,CLR,,0.00,WeatherDisplay:10.37,2013-07-06 17:18:00,
2013-07-06 12:24:00,89.4,74.7,29.91,East,88,9.7,11.5,62,0.00,CLR,,0.00,WeatherDisplay:10.37,2013-07-06 17:24:00,
2013-07-06 12:29:00,89.7,74.5,29.91,ENE,78,10.1,15.0,61,0.00,CLR,,0.00,WeatherDisplay:10.37,2013-07-06 17:29:00,
2013-07-06 12:34:00,89.7,74.0,29.91,ESE,104,10.7,17.3,60,0.00,CLR,,0.00,WeatherDisplay:10.37,2013-07-06 17:34:00,
2013-07-06 12:39:00,89.7,74.0,29.91,ENE,75,11.7,15.0,60,0.00,CLR,,0.00,WeatherDisplay:10.37,2013-07-06 17:39:00,
2013-07-06 12:44:00,89.7,74.5,29.91,NE,56,11.4,14.6,61,0.00,CLR,,0.00,WeatherDisplay:10.37,2013-07-06 17:44:00,
2013-07-06 12:50:00,89.8,74.6,29.91,East,83,11.3,15.0,61,0.00,CLR,,0.00,WeatherDisplay:10.37,2013-07-06 17:50:00,
2013-07-06 12:55:00,89.9,74.2,29.91,NE,55,10.4,16.1,60,0.00,CLR,,0.00,WeatherDisplay:10.37,2013-07-06 17:55:00,
2013-07-06 13:00:00,89.9,74.2,29.90,East,79,10.5,16.5,60,0.00,CLR,,0.00,WeatherDisplay:10.37,2013-07-06 18:00:00,
2013-07-06 13:05:00,90.1,74.3,29.90,East,90,10.6,17.3,60,0.00,CLR,,0.00,WeatherDisplay:10.37,2013-07-06 18:05:00,
2013-07-06 13:11:00,90.2,74.4,29.90,ENE,73,11.7,16.1,60,0.00,CLR,,0.00,WeatherDisplay:10.37,2013-07-06 18:11:00,
2013-07-06 13:16:00,90.2,74.4,29.90,ENE,66,11.1,16.1,60,0.00,CLR,,0.00,WeatherDisplay:10.37,2013-07-06 18:16:00,
2013-07-06 13:21:00,90.3,74.5,29.89,ENE,69,11.4,15.0,60,0.00,CLR,,0.00,WeatherDisplay:10.37,2013-07-06 18:21:00,
2013-07-06 13:26:00,90.2,73.9,29.89,NE,51,11.4,17.3,59,0.00,CLR,,0.00,WeatherDisplay:10.37,2013-07-06 18:26:00,
2013-07-06 13:31:00,90.1,74.3,29.89,ENE,73,11.0,14.4,60,0.00,CLR,,0.00,WeatherDisplay:10.37,2013-07-06 18:31:00,
2013-07-06 13:36:00,90.1,74.3,29.89,ENE,62,10.8,17.3,60,0.00,CLR,,0.00,WeatherDisplay:10.37,2013-07-06 18:36:00,
2013-07-06 13:41:00,90.2,74.4,29.89,East,90,11.0,15.4,60,0.00,CLR,,0.00,WeatherDisplay:10.37,2013-07-06 18:41:00,
2013-07-06 13:46:00,90.3,74.0,29.89,East,90,11.9,17.3,59,0.00,CLR,,0.00,WeatherDisplay:10.37,2013-07-06 18:46:00,
2013-07-06 13:51:00,90.3,74.0,29.89,ENE,78,13.4,16.1,59,0.00,CLR,,0.00,WeatherDisplay:10.37,2013-07-06 18:51:00,
2013-07-06 13:56:00,90.3,73.5,29.89,East,83,11.8,18.6,58,0.00,CLR,,0.00,WeatherDisplay:10.37,2013-07-06 18:56:00,
2013-07-06 14:01:00,90.6,73.8,29.89,ENE,73,11.1,17.3,58,0.00,CLR,,0.00,WeatherDisplay:10.37,2013-07-06 19:01:00,
2013-07-06 14:06:00,90.8,74.0,29.89,ENE,75,13.7,19.6,58,0.00,CLR,,0.00,WeatherDisplay:10.37,2013-07-06 19:06:00,
2013-07-06 14:13:00,90.8,74.0,29.89,East,93,9.0,16.1,58,0.00,CLR,,0.00,WeatherDisplay:10.37,2013-07-06 19:13:00,
2013-07-06 14:20:00,90.9,74.6,29.88,NE,51,10.0,16.7,59,0.00,CLR,,0.00,WeatherDisplay:10.37,2013-07-06 19:20:00,
2013-07-06 14:25:00,90.9,74.6,29.88,East,92,12.2,17.3,59,0.00,CLR,,0.00,WeatherDisplay:10.37,2013-07-06 19:25:00,
2013-07-06 14:31:00,90.9,74.1,29.88,ENE,66,14.2,19.3,58,0.00,CLR,,0.00,WeatherDisplay:10.37,2013-07-06 19:31:00,
2013-07-06 14:36:00,90.8,74.0,29.88,East,83,10.4,16.1,58,0.00,CLR,,0.00,WeatherDisplay:10.37,2013-07-06 19:36:00,
2013-07-06 14:41:00,90.9,74.1,29.88,ENE,73,10.2,18.4,58,0.00,CLR,,0.00,WeatherDisplay:10.37,2013-07-06 19:41:00,
2013-07-06 14:46:00,91.0,74.2,29.88,ENE,71,15.2,19.6,58,0.00,CLR,,0.00,WeatherDisplay:10.37,2013-07-06 19:46:00,
2013-07-06 14:51:00,90.9,73.6,29.88,East,86,10.3,19.6,57,0.00,CLR,,0.00,WeatherDisplay:10.37,2013-07-06 19:51:00,
2013-07-06 14:57:00,91.0,73.1,29.88,ENE,68,14.1,19.6,56,0.00,CLR,,0.00,WeatherDisplay:10.37,2013-07-06 19:57:00,
2013-07-06 15:02:00,91.1,73.7,29.88,ENE,64,11.5,17.7,57,0.00,CLR,,0.00,WeatherDisplay:10.37,2013-07-06 20:02:00,
2013-07-06 15:07:00,91.4,74.0,29.88,ENE,72,12.1,17.3,57,0.00,CLR,,0.00,WeatherDisplay:10.37,2013-07-06 20:07:00,
2013-07-06 15:12:00,91.3,73.4,29.87,ENE,72,10.6,18.4,56,0.00,CLR,,0.00,WeatherDisplay:10.37,2013-07-06 20:12:00,
2013-07-06 15:17:00,91.3,73.4,29.87,East,88,10.0,18.4,56,0.00,CLR,,0.00,WeatherDisplay:10.37,2013-07-06 20:17:00,
2013-07-06 15:23:00,91.2,74.4,29.87,ENE,62,10.5,17.3,58,0.00,CLR,,0.00,WeatherDisplay:10.37,2013-07-06 20:23:00,
2013-07-06 15:29:00,91.4,74.0,29.87,East,95,12.7,18.4,57,0.00,CLR,,0.00,WeatherDisplay:10.37,2013-07-06 20:29:00,
2013-07-06 15:34:00,91.8,73.3,29.86,ENE,58,10.0,15.0,55,0.00,CLR,,0.00,WeatherDisplay:10.37,2013-07-06 20:34:00,
2013-07-06 15:39:00,91.9,72.9,29.86,ENE,78,10.2,16.1,54,0.00,CLR,,0.00,WeatherDisplay:10.37,2013-07-06 20:39:00,
2013-07-06 15:44:00,92.0,73.0,29.86,East,97,14.8,23.0,54,0.00,CLR,,0.00,WeatherDisplay:10.37,2013-07-06 20:44:00,
2013-07-06 15:49:00,91.9,72.9,29.86,ESE,103,10.8,19.5,54,0.00,CLR,,0.00,WeatherDisplay:10.37,2013-07-06 20:49:00,
2013-07-06 15:55:00,91.8,73.3,29.86,ENE,72,11.9,18.4,55,0.00,CLR,,0.00,WeatherDisplay:10.37,2013-07-06 20:55:00,
2013-07-06 16:00:00,92.0,73.0,29.86,East,85,12.5,18.4,54,0.00,CLR,,0.00,WeatherDisplay:10.37,2013-07-06 21:00:00,
2013-07-06 16:06:00,92.0,73.5,29.85,East,85,14.8,19.6,55,0.00,CLR,,0.00,WeatherDisplay:10.37,2013-07-06 21:06:00,
2013-07-06 16:11:00,91.8,73.3,29.85,NE,41,11.8,18.5,55,0.00,CLR,,0.00,WeatherDisplay:10.37,2013-07-06 21:11:00,
2013-07-06 16:16:00,91.9,74.0,29.85,ESE,112,11.7,18.4,56,0.00,CLR,,0.00,WeatherDisplay:10.37,2013-07-06 21:16:00,
2013-07-06 16:22:00,92.0,74.1,29.85,ENE,66,13.8,20.7,56,0.00,CLR,,0.00,WeatherDisplay:10.37,2013-07-06 21:22:00,
2013-07-06 16:27:00,91.7,73.8,29.85,ENE,59,16.1,23.0,56,0.00,CLR,,0.00,WeatherDisplay:10.37,2013-07-06 21:27:00,
2013-07-06 16:32:00,91.7,73.8,29.85,East,100,13.1,20.7,56,0.00,CLR,,0.00,WeatherDisplay:10.37,2013-07-06 21:32:00,
2013-07-06 16:37:00,91.4,73.0,29.85,ENE,72,11.6,20.5,55,0.00,CLR,,0.00,WeatherDisplay:10.37,2013-07-06 21:37:00,
2013-07-06 16:42:00,91.2,73.3,29.85,ENE,72,13.2,20.3,56,0.00,CLR,,0.00,WeatherDisplay:10.37,2013-07-06 21:42:00,
2013-07-06 16:47:00,91.0,72.6,29.84,East,92,9.1,15.0,55,0.00,CLR,,0.00,WeatherDisplay:10.37,2013-07-06 21:47:00,
2013-07-06 16:52:00,91.1,73.2,29.84,East,93,10.9,17.3,56,0.00,CLR,,0.00,WeatherDisplay:10.37,2013-07-06 21:52:00,
2013-07-06 16:57:00,91.2,73.3,29.84,ENE,68,12.2,18.4,56,0.00,CLR,,0.00,WeatherDisplay:10.37,2013-07-06 21:57:00,
2013-07-06 17:03:00,91.4,73.0,29.84,ENE,75,11.8,19.6,55,0.00,CLR,,0.00,WeatherDisplay:10.37,2013-07-06 22:03:00,
2013-07-06 17:09:00,91.3,72.9,29.84,East,99,14.5,20.0,55,0.00,CLR,,0.00,WeatherDisplay:10.37,2013-07-06 22:09:00,
2013-07-06 17:14:00,91.1,73.2,29.84,East,93,12.3,18.6,56,0.00,CLR,,0.00,WeatherDisplay:10.37,2013-07-06 22:14:00,
2013-07-06 17:19:00,91.0,74.2,29.84,ENE,78,10.2,17.3,58,0.00,CLR,,0.00,WeatherDisplay:10.37,2013-07-06 22:19:00,
2013-07-06 17:24:00,90.9,74.1,29.84,East,82,13.3,17.1,58,0.00,CLR,,0.00,WeatherDisplay:10.37,2013-07-06 22:24:00,
2013-07-06 17:30:00,91.1,73.7,29.84,ENE,73,10.4,18.4,57,0.00,CLR,,0.00,WeatherDisplay:10.37,2013-07-06 22:30:00,
2013-07-06 17:35:00,91.2,73.8,29.84,ENE,76,11.5,16.1,57,0.00,CLR,,0.00,WeatherDisplay:10.37,2013-07-06 22:35:00,
2013-07-06 17:40:00,90.9,74.1,29.84,ENE,75,10.2,17.3,58,0.00,CLR,,0.00,WeatherDisplay:10.37,2013-07-06 22:40:00,
2013-07-06 17:45:00,90.9,74.6,29.84,ESE,112,8.0,12.7,59,0.00,CLR,,0.00,WeatherDisplay:10.37,2013-07-06 22:45:00,
2013-07-06 17:50:00,90.6,74.8,29.84,East,95,13.2,20.7,60,0.00,CLR,,0.00,WeatherDisplay:10.37,2013-07-06 22:50:00,
2013-07-06 17:55:00,90.7,74.4,29.84,East,83,12.4,19.6,59,0.00,CLR,,0.00,WeatherDisplay:10.37,2013-07-06 22:55:00,
2013-07-06 18:00:00,90.4,74.6,29.84,East,79,10.8,15.3,60,0.00,CLR,,0.00,WeatherDisplay:10.37,2013-07-06 23:00:00,
2013-07-06 18:06:00,90.2,75.4,29.84,ESE,113,11.2,19.6,62,0.00,CLR,,0.00,WeatherDisplay:10.37,2013-07-06 23:06:00,
2013-07-06 18:11:00,90.3,74.5,29.84,East,82,12.9,19.6,60,0.00,CLR,,0.00,WeatherDisplay:10.37,2013-07-06 23:11:00,
2013-07-06 18:16:00,90.7,74.4,29.84,East,93,12.3,19.6,59,0.00,CLR,,0.00,WeatherDisplay:10.37,2013-07-06 23:16:00,
2013-07-06 18:21:00,90.2,73.9,29.84,ESE,110,9.8,13.5,59,0.00,CLR,,0.00,WeatherDisplay:10.37,2013-07-06 23:21:00,
2013-07-06 18:26:00,89.7,74.0,29.84,ESE,102,9.4,15.3,60,0.00,CLR,,0.00,WeatherDisplay:10.37,2013-07-06 23:26:00,
2013-07-06 18:31:00,89.1,73.9,29.84,East,99,10.8,16.1,61,0.00,CLR,,0.00,WeatherDisplay:10.37,2013-07-06 23:31:00,
2013-07-06 18:36:00,89.0,74.3,29.84,East,93,10.8,18.3,62,0.00,CLR,,0.00,WeatherDisplay:10.37,2013-07-06 23:36:00,
2013-07-06 18:41:00,89.0,74.3,29.83,East,96,12.1,18.3,62,0.00,CLR,,0.00,WeatherDisplay:10.37,2013-07-06 23:41:00,
2013-07-06 18:46:00,89.8,74.6,29.83,East,100,10.0,16.1,61,0.00,CLR,,0.00,WeatherDisplay:10.37,2013-07-06 23:46:00,
2013-07-06 18:51:00,89.3,74.1,29.83,East,95,10.2,16.8,61,0.00,CLR,,0.00,WeatherDisplay:10.37,2013-07-06 23:51:00,
2013-07-06 18:57:00,89.2,74.0,29.84,East,80,11.6,17.8,61,0.00,CLR,,0.00,WeatherDisplay:10.37,2013-07-06 23:57:00,
2013-07-06 19:02:00,89.3,74.1,29.84,East,80,10.0,18.4,61,0.00,CLR,,0.00,WeatherDisplay:10.37,2013-07-07 00:02:00,
2013-07-06 19:07:00,89.2,74.5,29.84,East,88,10.2,17.3,62,0.00,CLR,,0.00,WeatherDisplay:10.37,2013-07-07 00:07:00,
2013-07-06 19:12:00,88.8,74.6,29.84,East,97,11.7,18.4,63,0.00,CLR,,0.00,WeatherDisplay:10.37,2013-07-07 00:12:00,
2013-07-06 19:17:00,88.9,75.1,29.84,SE,128,9.8,18.4,64,0.00,CLR,,0.00,WeatherDisplay:10.37,2013-07-07 00:17:00,
2013-07-06 19:22:00,88.3,75.0,29.85,SE,140,8.0,17.3,65,0.00,CLR,,0.00,WeatherDisplay:10.37,2013-07-07 00:22:00,
2013-07-06 19:27:00,87.6,74.8,29.85,ESE,103,9.7,18.4,66,0.00,CLR,,0.00,WeatherDisplay:10.37,2013-07-07 00:27:00,
2013-07-06 19:32:00,87.5,75.2,29.85,ESE,123,11.4,17.8,67,0.00,CLR,,0.00,WeatherDisplay:10.37,2013-07-07 00:32:00,
2013-07-06 19:37:00,87.5,75.6,29.85,ESE,109,12.3,18.0,68,0.00,CLR,,0.00,WeatherDisplay:10.37,2013-07-07 00:37:00,
2013-07-06 19:46:00,87.4,76.0,29.85,ENE,75,10.6,20.7,69,0.00,CLR,,0.00,WeatherDisplay:10.37,2013-07-07 00:46:00,
2013-07-06 19:51:00,87.3,75.9,29.85,ESE,110,9.7,14.0,69,0.00,CLR,,0.00,WeatherDisplay:10.37,2013-07-07 00:51:00,
2013-07-06 19:57:00,86.8,75.8,29.85,ESE,104,10.0,17.3,70,0.00,CLR,,0.00,WeatherDisplay:10.37,2013-07-07 00:57:00,
2013-07-06 20:02:00,86.2,76.1,29.85,ESE,114,9.8,17.8,72,0.00,CLR,,0.00,WeatherDisplay:10.37,2013-07-07 01:02:00,
2013-07-06 20:09:00,85.5,76.3,29.85,ESE,109,16.1,16.1,74,0.00,CLR,,0.00,WeatherDisplay:10.37,2013-07-07 01:09:00,
2013-07-06 20:14:00,85.2,76.4,29.85,East,89,7.4,16.1,75,0.00,,,0.00,WeatherDisplay:10.37,2013-07-07 01:14:00,
2013-07-06 20:19:00,84.8,76.0,29.85,ESE,119,12.3,19.6,75,0.00,,,0.00,WeatherDisplay:10.37,2013-07-07 01:19:00,
2013-07-06 20:26:00,84.5,76.5,29.85,ENE,69,10.5,17.8,77,0.00,CLR,,0.00,WeatherDisplay:10.37,2013-07-07 01:26:00,
2013-07-06 20:31:00,84.4,76.0,29.85,East,80,12.1,17.3,76,0.00,CLR,,0.00,WeatherDisplay:10.37,2013-07-07 01:31:00,
2013-07-06 20:37:00,84.1,76.1,29.85,ESE,120,11.2,15.0,77,0.00,CLR,,0.00,WeatherDisplay:10.37,2013-07-07 01:37:00,
2013-07-06 20:42:00,84.0,76.8,29.85,SE,128,7.7,15.0,79,0.00,CLR,,0.00,WeatherDisplay:10.37,2013-07-07 01:42:00,
2013-07-06 20:47:00,83.8,77.3,29.86,ESE,119,10.2,15.9,81,0.00,CLR,,0.00,WeatherDisplay:10.37,2013-07-07 01:47:00,
2013-07-06 20:53:00,83.4,76.6,29.86,ESE,103,9.4,17.3,80,0.00,CLR,,0.00,WeatherDisplay:10.37,2013-07-07 01:53:00,
2013-07-06 20:58:00,83.5,77.1,29.86,East,93,10.1,16.7,81,0.00,CLR,,0.00,WeatherDisplay:10.37,2013-07-07 01:58:00,
2013-07-06 21:05:00,83.5,78.2,29.87,ESE,119,10.7,20.7,84,0.00,CLR,,0.00,WeatherDisplay:10.37,2013-07-07 02:05:00,
2013-07-06 21:10:00,83.4,78.4,29.87,ESE,109,10.2,16.7,85,0.00,CLR,,0.00,WeatherDisplay:10.37,2013-07-07 02:10:00,
2013-07-06 21:16:00,82.9,78.3,29.87,ESE,116,10.8,16.1,86,0.00,CLR,,0.00,WeatherDisplay:10.37,2013-07-07 02:16:00,
2013-07-06 21:21:00,82.8,78.5,29.87,SE,138,7.1,13.8,87,0.00,CLR,,0.00,WeatherDisplay:10.37,2013-07-07 02:21:00,
2013-07-06 21:26:00,82.7,78.4,29.86,SE,144,9.7,13.8,87,0.00,CLR,,0.00,WeatherDisplay:10.37,2013-07-07 02:26:00,
2013-07-06 21:31:00,82.6,78.7,29.86,ESE,114,8.8,12.7,88,0.00,CLR,,0.00,WeatherDisplay:10.37,2013-07-07 02:31:00,
2013-07-06 21:36:00,82.4,78.1,29.86,East,99,11.7,16.1,87,0.00,CLR,,0.00,WeatherDisplay:10.37,2013-07-07 02:36:00,
2013-07-06 21:41:00,82.4,78.1,29.87,SE,134,8.2,16.1,87,0.00,CLR,,0.00,WeatherDisplay:10.37,2013-07-07 02:41:00,
2013-07-06 21:46:00,82.4,78.1,29.87,ESE,119,10.3,16.1,87,0.00,CLR,,0.00,WeatherDisplay:10.37,2013-07-07 02:46:00,
2013-07-06 21:52:00,82.5,78.6,29.87,ESE,106,9.1,12.7,88,0.00,CLR,,0.00,WeatherDisplay:10.37,2013-07-07 02:52:00,
2013-07-06 21:58:00,82.6,78.7,29.87,East,93,9.0,13.9,88,0.00,CLR,,0.00,WeatherDisplay:10.37,2013-07-07 02:58:00,
2013-07-06 22:03:00,82.4,78.1,29.87,SSE,162,10.3,16.3,87,0.00,CLR,,0.00,WeatherDisplay:10.37,2013-07-07 03:03:00,
2013-07-06 22:08:00,82.2,78.3,29.87,SSE,148,8.7,13.8,88,0.00,CLR,,0.00,WeatherDisplay:10.37,2013-07-07 03:08:00,
2013-07-06 22:13:00,82.2,78.3,29.87,SE,137,10.3,17.0,88,0.00,CLR,,0.00,WeatherDisplay:10.37,2013-07-07 03:13:00,
2013-07-06 22:19:00,82.1,78.2,29.87,SSE,152,8.7,15.0,88,0.00,CLR,,0.00,WeatherDisplay:10.37,2013-07-07 03:19:00,
2013-07-06 22:25:00,81.9,78.0,29.87,SE,140,9.9,16.1,88,0.00,CLR,,0.00,WeatherDisplay:10.37,2013-07-07 03:25:00,
2013-07-06 22:30:00,81.9,78.0,29.87,SSE,162,10.5,16.0,88,0.00,CLR,,0.00,WeatherDisplay:10.37,2013-07-07 03:30:00,
2013-07-06 22:36:00,81.7,77.8,29.87,SE,144,9.4,15.0,88,0.00,CLR,,0.00,WeatherDisplay:10.37,2013-07-07 03:36:00,
2013-07-06 22:41:00,81.5,77.6,29.87,SE,130,9.0,15.5,88,0.00,CLR,,0.00,WeatherDisplay:10.37,2013-07-07 03:41:00,
2013-07-06 22:46:00,81.6,78.0,29.87,SSE,160,10.2,13.9,89,0.00,CLR,,0.00,WeatherDisplay:10.37,2013-07-07 03:46:00,
2013-07-06 22:51:00,81.7,78.5,29.88,SSE,162,6.9,13.9,90,0.00,CLR,,0.00,WeatherDisplay:10.37,2013-07-07 03:51:00,
2013-07-06 22:56:00,81.6,78.4,29.88,SE,137,6.7,13.2,90,0.00,CLR,,0.00,WeatherDisplay:10.37,2013-07-07 03:56:00,
2013-07-06 23:01:00,81.4,78.2,29.88,SE,145,9.3,13.8,90,0.00,CLR,,0.00,WeatherDisplay:10.37,2013-07-07 04:01:00,
2013-07-06 23:02:00,81.4,78.5,29.88,South,174,9.5,15.0,91,0.00,CLR,,0.00,WeatherDisplay:10.37,2013-07-07 04:02:00,
2013-07-06 23:03:00,81.3,78.4,29.88,SSE,150,8.2,15.0,91,0.00,CLR,,0.00,WeatherDisplay:10.37,2013-07-07 04:03:00,
2013-07-06 23:08:00,81.3,78.4,29.88,SE,140,9.7,14.4,91,0.00,CLR,,0.00,WeatherDisplay:10.37,2013-07-07 04:08:00,
2013-07-06 23:11:00,81.4,78.5,29.88,SSE,158,8.5,12.7,91,0.00,CLR,,0.00,WeatherDisplay:10.37,2013-07-07 04:11:00,
2013-07-06 23:16:00,81.3,78.4,29.88,SSW,193,10.2,12.7,91,0.00,CLR,,0.00,WeatherDisplay:10.37,2013-07-07 04:16:00,
2013-07-06 23:21:00,81.1,77.9,29.88,SSW,202,7.5,10.4,90,0.00,CLR,,0.00,WeatherDisplay:10.37,2013-07-07 04:21:00,
2013-07-06 23:27:00,81.1,78.2,29.88,South,182,7.1,10.4,91,0.00,CLR,,0.00,WeatherDisplay:10.37,2013-07-07 04:27:00,
2013-07-06 23:32:00,81.0,77.8,29.88,South,186,5.3,8.1,90,0.00,CLR,,0.00,WeatherDisplay:10.37,2013-07-07 04:32:00,
2013-07-06 23:37:00,81.1,78.2,29.88,South,169,6.1,9.2,91,0.00,CLR,,0.00,WeatherDisplay:10.37,2013-07-07 04:37:00,
2013-07-06 23:42:00,81.1,77.9,29.88,SSW,195,7.1,11.5,90,0.00,CLR,,0.00,WeatherDisplay:10.37,2013-07-07 04:42:00,
2013-07-06 23:47:00,80.8,77.6,29.88,South,178,8.1,10.4,90,0.00,CLR,,0.00,WeatherDisplay:10.37,2013-07-07 04:47:00,
2013-07-06 23:52:00,80.9,77.7,29.88,South,182,7.6,10.4,90,0.00,CLR,,0.00,WeatherDisplay:10.37,2013-07-07 04:52:00,
2013-07-06 23:57:00,80.8,77.3,29.88,SSW,192,5.4,8.1,89,0.00,CLR,,0.00,WeatherDisplay:10.37,2013-07-07 04:57:00,